sensor_id;sensor_type;location;lat;lon;timestamp;pressure;altitude;pressure_sealevel;temperature;humidity
55068;BME280;40965;52.368;9.712;2024-03-08T00:00:54;101535.91;;;1.89;82.28
55068;BME280;40965;52.368;9.712;2024-03-08T00:03:21;101530.63;;;1.86;82.63
55068;BME280;40965;52.368;9.712;2024-03-08T00:05:48;101534.97;;;1.87;82.71
55068;BME280;40965;52.368;9.712;2024-03-08T00:08:15;101536.59;;;1.85;82.50
55068;BME280;40965;52.368;9.712;2024-03-08T00:10:41;101527.84;;;1.81;82.78
55068;BME280;40965;52.368;9.712;2024-03-08T00:13:08;101530.38;;;1.79;83.05
55068;BME280;40965;52.368;9.712;2024-03-08T00:15:35;101524.44;;;1.82;82.68
55068;BME280;40965;52.368;9.712;2024-03-08T00:18:11;101521.75;;;1.79;83.15
55068;BME280;40965;52.368;9.712;2024-03-08T00:20:37;101530.38;;;1.79;82.40
55068;BME280;40965;52.368;9.712;2024-03-08T00:23:04;101526.78;;;1.76;82.76
55068;BME280;40965;52.368;9.712;2024-03-08T00:25:33;101524.78;;;1.69;83.10
55068;BME280;40965;52.368;9.712;2024-03-08T00:28:06;101527.22;;;1.65;83.61
55068;BME280;40965;52.368;9.712;2024-03-08T00:30:36;101534.03;;;1.63;84.10
55068;BME280;40965;52.368;9.712;2024-03-08T00:33:09;101531.44;;;1.63;83.61
55068;BME280;40965;52.368;9.712;2024-03-08T00:35:38;101526.16;;;1.60;83.51
55068;BME280;40965;52.368;9.712;2024-03-08T00:38:05;101528.59;;;1.57;84.08
55068;BME280;40965;52.368;9.712;2024-03-08T00:40:32;101525.97;;;1.56;84.04
55068;BME280;40965;52.368;9.712;2024-03-08T00:42:59;101529.28;;;1.53;84.31
55068;BME280;40965;52.368;9.712;2024-03-08T00:45:31;101525.09;;;1.55;84.34
55068;BME280;40965;52.368;9.712;2024-03-08T00:47:58;101516.50;;;1.56;84.15
55068;BME280;40965;52.368;9.712;2024-03-08T00:50:25;101518.22;;;1.56;84.70
55068;BME280;40965;52.368;9.712;2024-03-08T00:52:52;101516.38;;;1.53;84.68
55068;BME280;40965;52.368;9.712;2024-03-08T00:55:19;101511.97;;;1.51;85.04
55068;BME280;40965;52.368;9.712;2024-03-08T00:57:46;101512.78;;;1.49;84.98
55068;BME280;40965;52.368;9.712;2024-03-08T01:00:13;101499.88;;;1.49;84.85
55068;BME280;40965;52.368;9.712;2024-03-08T01:02:40;101506.56;;;1.44;84.94
55068;BME280;40965;52.368;9.712;2024-03-08T01:05:10;101502.16;;;1.42;85.39
55068;BME280;40965;52.368;9.712;2024-03-08T01:07:43;101490.06;;;1.41;85.25
55068;BME280;40965;52.368;9.712;2024-03-08T01:10:11;101485.59;;;1.37;85.95
55068;BME280;40965;52.368;9.712;2024-03-08T01:12:38;101491.50;;;1.34;85.86
55068;BME280;40965;52.368;9.712;2024-03-08T01:15:09;101486.28;;;1.32;85.87
55068;BME280;40965;52.368;9.712;2024-03-08T01:17:39;101487.03;;;1.30;86.14
55068;BME280;40965;52.368;9.712;2024-03-08T01:20:09;101481.88;;;1.30;86.31
55068;BME280;40965;52.368;9.712;2024-03-08T01:22:43;101474.88;;;1.27;86.62
55068;BME280;40965;52.368;9.712;2024-03-08T01:25:16;101467.91;;;1.25;87.11
55068;BME280;40965;52.368;9.712;2024-03-08T01:27:43;101471.50;;;1.28;87.41
55068;BME280;40965;52.368;9.712;2024-03-08T01:30:15;101462.81;;;1.26;87.84
55068;BME280;40965;52.368;9.712;2024-03-08T01:32:45;101465.31;;;1.25;87.83
55068;BME280;40965;52.368;9.712;2024-03-08T01:35:12;101454.94;;;1.23;88.07
55068;BME280;40965;52.368;9.712;2024-03-08T01:37:43;101451.41;;;1.21;88.10
55068;BME280;40965;52.368;9.712;2024-03-08T01:40:13;101447.00;;;1.19;88.27
55068;BME280;40965;52.368;9.712;2024-03-08T01:42:39;101449.53;;;1.17;88.11
55068;BME280;40965;52.368;9.712;2024-03-08T01:45:08;101448.59;;;1.15;88.74
55068;BME280;40965;52.368;9.712;2024-03-08T01:47:37;101438.34;;;1.17;88.40
55068;BME280;40965;52.368;9.712;2024-03-08T01:50:04;101442.53;;;1.14;88.42
55068;BME280;40965;52.368;9.712;2024-03-08T01:52:32;101435.66;;;1.13;88.73
55068;BME280;40965;52.368;9.712;2024-03-08T01:55:02;101436.44;;;1.12;88.94
55068;BME280;40965;52.368;9.712;2024-03-08T01:57:40;101432.78;;;1.07;89.16
55068;BME280;40965;52.368;9.712;2024-03-08T02:00:21;101430.97;;;1.05;89.37
55068;BME280;40965;52.368;9.712;2024-03-08T02:02:49;101429.09;;;1.01;89.84
55068;BME280;40965;52.368;9.712;2024-03-08T02:05:17;101427.16;;;0.96;90.04
55068;BME280;40965;52.368;9.712;2024-03-08T02:07:44;101426.22;;;0.94;90.14
55068;BME280;40965;52.368;9.712;2024-03-08T02:10:10;101426.13;;;0.91;90.87
55068;BME280;40965;52.368;9.712;2024-03-08T02:12:38;101420.69;;;0.85;91.11
55068;BME280;40965;52.368;9.712;2024-03-08T02:15:06;101427.63;;;0.86;91.54
55068;BME280;40965;52.368;9.712;2024-03-08T02:17:37;101421.50;;;0.84;91.68
55068;BME280;40965;52.368;9.712;2024-03-08T02:20:12;101417.16;;;0.83;91.77
55068;BME280;40965;52.368;9.712;2024-03-08T02:22:39;101418.53;;;0.75;92.59
55068;BME280;40965;52.368;9.712;2024-03-08T02:25:33;101406.44;;;0.74;92.77
55068;BME280;40965;52.368;9.712;2024-03-08T02:28:33;101413.22;;;0.72;93.27
55068;BME280;40965;52.368;9.712;2024-03-08T02:31:34;101400.28;;;0.70;93.52
55068;BME280;40965;52.368;9.712;2024-03-08T02:34:23;101404.50;;;0.68;94.16
55068;BME280;40965;52.368;9.712;2024-03-08T02:36:58;101406.03;;;0.64;94.63
55068;BME280;40965;52.368;9.712;2024-03-08T02:39:48;101406.84;;;0.63;94.61
55068;BME280;40965;52.368;9.712;2024-03-08T02:42:24;101400.84;;;0.63;95.22
55068;BME280;40965;52.368;9.712;2024-03-08T02:44:51;101393.09;;;0.63;95.33
55068;BME280;40965;52.368;9.712;2024-03-08T02:47:18;101392.16;;;0.61;95.74
55068;BME280;40965;52.368;9.712;2024-03-08T02:49:45;101388.63;;;0.59;96.04
55068;BME280;40965;52.368;9.712;2024-03-08T02:52:12;101387.75;;;0.58;96.26
55068;BME280;40965;52.368;9.712;2024-03-08T02:54:39;101388.47;;;0.56;96.74
55068;BME280;40965;52.368;9.712;2024-03-08T02:57:05;101382.25;;;0.51;97.08
55068;BME280;40965;52.368;9.712;2024-03-08T02:59:35;101382.25;;;0.51;97.24
55068;BME280;40965;52.368;9.712;2024-03-08T03:02:08;101379.50;;;0.46;97.89
55068;BME280;40965;52.368;9.712;2024-03-08T03:04:35;101371.00;;;0.48;97.77
55068;BME280;40965;52.368;9.712;2024-03-08T03:07:03;101364.91;;;0.46;98.13
55068;BME280;40965;52.368;9.712;2024-03-08T03:09:31;101364.03;;;0.46;97.88
55068;BME280;40965;52.368;9.712;2024-03-08T03:12:01;101355.34;;;0.44;98.12
55068;BME280;40965;52.368;9.712;2024-03-08T03:14:28;101362.00;;;0.39;98.49
55068;BME280;40965;52.368;9.712;2024-03-08T03:16:55;101357.84;;;0.42;99.27
55068;BME280;40965;52.368;9.712;2024-03-08T03:19:22;101355.97;;;0.38;99.18
55068;BME280;40965;52.368;9.712;2024-03-08T03:21:49;101363.75;;;0.40;99.35
55068;BME280;40965;52.368;9.712;2024-03-08T03:24:16;101360.03;;;0.33;99.83
55068;BME280;40965;52.368;9.712;2024-03-08T03:26:43;101354.81;;;0.31;100.00
55068;BME280;40965;52.368;9.712;2024-03-08T03:29:11;101346.88;;;0.27;100.00
55068;BME280;40965;52.368;9.712;2024-03-08T03:31:37;101350.47;;;0.30;100.00
55068;BME280;40965;52.368;9.712;2024-03-08T03:34:08;101356.38;;;0.28;100.00
55068;BME280;40965;52.368;9.712;2024-03-08T03:36:41;101355.41;;;0.26;100.00
55068;BME280;40965;52.368;9.712;2024-03-08T03:39:12;101354.47;;;0.24;100.00
55068;BME280;40965;52.368;9.712;2024-03-08T03:41:42;101356.03;;;0.20;100.00
55068;BME280;40965;52.368;9.712;2024-03-08T03:44:16;101352.66;;;0.21;100.00
55068;BME280;40965;52.368;9.712;2024-03-08T03:46:43;101346.53;;;0.19;100.00
55068;BME280;40965;52.368;9.712;2024-03-08T03:49:11;101349.72;;;0.13;100.00
55068;BME280;40965;52.368;9.712;2024-03-08T03:51:38;101355.69;;;0.12;100.00
55068;BME280;40965;52.368;9.712;2024-03-08T03:54:05;101347.91;;;0.11;100.00
55068;BME280;40965;52.368;9.712;2024-03-08T03:56:35;101340.91;;;0.08;100.00
55068;BME280;40965;52.368;9.712;2024-03-08T03:59:02;101347.50;;;0.02;100.00
55068;BME280;40965;52.368;9.712;2024-03-08T04:01:29;101355.16;;;0.00;100.00
55068;BME280;40965;52.368;9.712;2024-03-08T04:03:56;101353.31;;;-0.03;100.00
55068;BME280;40965;52.368;9.712;2024-03-08T04:06:22;101352.28;;;-0.06;100.00
55068;BME280;40965;52.368;9.712;2024-03-08T04:08:49;101347.94;;;-0.07;100.00
55068;BME280;40965;52.368;9.712;2024-03-08T04:11:19;101340.84;;;-0.13;100.00
55068;BME280;40965;52.368;9.712;2024-03-08T04:13:46;101346.72;;;-0.15;100.00
55068;BME280;40965;52.368;9.712;2024-03-08T04:16:15;101345.69;;;-0.19;100.00
55068;BME280;40965;52.368;9.712;2024-03-08T04:18:44;101350.84;;;-0.19;100.00
55068;BME280;40965;52.368;9.712;2024-03-08T04:21:13;101342.69;;;-0.28;100.00
55068;BME280;40965;52.368;9.712;2024-03-08T04:23:44;101338.34;;;-0.29;100.00
55068;BME280;40965;52.368;9.712;2024-03-08T04:26:11;101336.53;;;-0.32;100.00
55068;BME280;40965;52.368;9.712;2024-03-08T04:28:40;101335.66;;;-0.32;100.00
55068;BME280;40965;52.368;9.712;2024-03-08T04:31:07;101330.41;;;-0.34;100.00
55068;BME280;40965;52.368;9.712;2024-03-08T04:33:34;101335.50;;;-0.36;100.00
55068;BME280;40965;52.368;9.712;2024-03-08T04:36:01;101328.44;;;-0.40;100.00
55068;BME280;40965;52.368;9.712;2024-03-08T04:38:29;101331.97;;;-0.38;100.00
55068;BME280;40965;52.368;9.712;2024-03-08T04:40:57;101327.56;;;-0.40;100.00
55068;BME280;40965;52.368;9.712;2024-03-08T04:43:25;101329.13;;;-0.44;100.00
55068;BME280;40965;52.368;9.712;2024-03-08T04:45:52;101326.31;;;-0.48;100.00
55068;BME280;40965;52.368;9.712;2024-03-08T04:48:19;101329.84;;;-0.46;100.00
55068;BME280;40965;52.368;9.712;2024-03-08T04:50:46;101326.25;;;-0.50;100.00
55068;BME280;40965;52.368;9.712;2024-03-08T04:53:13;101323.38;;;-0.56;100.00
55068;BME280;40965;52.368;9.712;2024-03-08T04:55:40;101324.06;;;-0.60;100.00
55068;BME280;40965;52.368;9.712;2024-03-08T04:58:06;101312.97;;;-0.59;100.00
55068;BME280;40965;52.368;9.712;2024-03-08T05:00:33;101315.53;;;-0.59;100.00
55068;BME280;40965;52.368;9.712;2024-03-08T05:03:03;101320.53;;;-0.62;100.00
55068;BME280;40965;52.368;9.712;2024-03-08T05:05:31;101306.84;;;-0.61;100.00
55068;BME280;40965;52.368;9.712;2024-03-08T05:07:58;101321.53;;;-0.59;100.00
55068;BME280;40965;52.368;9.712;2024-03-08T05:10:28;101320.53;;;-0.62;100.00
55068;BME280;40965;52.368;9.712;2024-03-08T05:12:55;101307.69;;;-0.62;100.00
55068;BME280;40965;52.368;9.712;2024-03-08T05:15:22;101311.88;;;-0.64;100.00
55068;BME280;40965;52.368;9.712;2024-03-08T05:17:48;101312.47;;;-0.70;100.00
55068;BME280;40965;52.368;9.712;2024-03-08T05:20:15;101318.47;;;-0.70;100.00
55068;BME280;40965;52.368;9.712;2024-03-08T05:22:42;101314.38;;;-0.66;100.00
55068;BME280;40965;52.368;9.712;2024-03-08T05:25:09;101313.28;;;-0.71;100.00
55068;BME280;40965;52.368;9.712;2024-03-08T05:27:42;101315.91;;;-0.70;100.00
55068;BME280;40965;52.368;9.712;2024-03-08T05:30:09;101324.41;;;-0.71;100.00
55068;BME280;40965;52.368;9.712;2024-03-08T05:32:41;101320.00;;;-0.73;100.00
55068;BME280;40965;52.368;9.712;2024-03-08T05:35:11;101313.19;;;-0.73;100.00
55068;BME280;40965;52.368;9.712;2024-03-08T05:37:43;101308.00;;;-0.74;100.00
55068;BME280;40965;52.368;9.712;2024-03-08T05:40:10;101309.66;;;-0.75;100.00
55068;BME280;40965;52.368;9.712;2024-03-08T05:42:42;101309.81;;;-0.72;100.00
55068;BME280;40965;52.368;9.712;2024-03-08T05:45:09;101315.03;;;-0.70;100.00
55068;BME280;40965;52.368;9.712;2024-03-08T05:47:43;101308.19;;;-0.70;100.00
55068;BME280;40965;52.368;9.712;2024-03-08T05:50:09;101309.91;;;-0.70;100.00
55068;BME280;40965;52.368;9.712;2024-03-08T05:52:41;101302.00;;;-0.73;100.00
55068;BME280;40965;52.368;9.712;2024-03-08T05:55:08;101307.41;;;-0.69;100.00
55068;BME280;40965;52.368;9.712;2024-03-08T05:57:36;101308.44;;;-0.65;100.00
55068;BME280;40965;52.368;9.712;2024-03-08T06:00:08;101312.00;;;-0.61;100.00
55068;BME280;40965;52.368;9.712;2024-03-08T06:02:38;101300.97;;;-0.59;100.00
55068;BME280;40965;52.368;9.712;2024-03-08T06:05:17;101302.69;;;-0.59;100.00
55068;BME280;40965;52.368;9.712;2024-03-08T06:07:44;101301.72;;;-0.61;100.00
55068;BME280;40965;52.368;9.712;2024-03-08T06:10:13;101307.22;;;-0.54;100.00
55068;BME280;40965;52.368;9.712;2024-03-08T06:12:42;101311.50;;;-0.54;100.00
55068;BME280;40965;52.368;9.712;2024-03-08T06:15:10;101302.97;;;-0.53;100.00
55068;BME280;40965;52.368;9.712;2024-03-08T06:17:40;101310.03;;;-0.49;100.00
55068;BME280;40965;52.368;9.712;2024-03-08T06:20:09;101311.78;;;-0.48;100.00
55068;BME280;40965;52.368;9.712;2024-03-08T06:22:40;101309.34;;;-0.45;100.00
55068;BME280;40965;52.368;9.712;2024-03-08T06:25:12;101307.75;;;-0.43;100.00
55068;BME280;40965;52.368;9.712;2024-03-08T06:27:47;101302.72;;;-0.40;100.00
55068;BME280;40965;52.368;9.712;2024-03-08T06:30:18;101303.06;;;-0.32;100.00
55068;BME280;40965;52.368;9.712;2024-03-08T06:32:47;101305.66;;;-0.32;100.00
55068;BME280;40965;52.368;9.712;2024-03-08T06:35:15;101298.97;;;-0.28;100.00
55068;BME280;40965;52.368;9.712;2024-03-08T06:37:45;101299.03;;;-0.27;100.00
55068;BME280;40965;52.368;9.712;2024-03-08T06:40:25;101302.47;;;-0.26;100.00
55068;BME280;40965;52.368;9.712;2024-03-08T06:42:51;101287.25;;;-0.22;100.00
55068;BME280;40965;52.368;9.712;2024-03-08T06:45:19;101293.69;;;-0.12;100.00
55068;BME280;40965;52.368;9.712;2024-03-08T06:47:47;101292.34;;;-0.04;100.00
55068;BME280;40965;52.368;9.712;2024-03-08T06:50:14;101295.09;;;0.01;100.00
55068;BME280;40965;52.368;9.712;2024-03-08T06:52:52;101298.97;;;0.11;100.00
55068;BME280;40965;52.368;9.712;2024-03-08T06:55:20;101294.84;;;0.14;100.00
55068;BME280;40965;52.368;9.712;2024-03-08T06:57:47;101289.53;;;0.31;100.00
55068;BME280;40965;52.368;9.712;2024-03-08T07:00:15;101301.72;;;1.18;100.00
55068;BME280;40965;52.368;9.712;2024-03-08T07:02:54;101298.69;;;3.83;78.93
55068;BME280;40965;52.368;9.712;2024-03-08T07:05:34;101295.28;;;5.18;71.17
55068;BME280;40965;52.368;9.712;2024-03-08T07:08:05;101304.22;;;6.09;66.58
55068;BME280;40965;52.368;9.712;2024-03-08T07:10:38;101297.94;;;6.45;63.72
55068;BME280;40965;52.368;9.712;2024-03-08T07:13:07;101295.78;;;6.68;62.63
55068;BME280;40965;52.368;9.712;2024-03-08T07:15:38;101294.25;;;7.38;58.86
55068;BME280;40965;52.368;9.712;2024-03-08T07:18:06;101296.47;;;6.59;59.73
55068;BME280;40965;52.368;9.712;2024-03-08T07:20:34;101292.09;;;7.69;57.55
55068;BME280;40965;52.368;9.712;2024-03-08T07:23:02;101290.66;;;7.28;57.86
55068;BME280;40965;52.368;9.712;2024-03-08T07:25:33;101292.28;;;7.83;56.62
55068;BME280;40965;52.368;9.712;2024-03-08T07:28:01;101291.44;;;8.65;55.32
55068;BME280;40965;52.368;9.712;2024-03-08T07:30:27;101287.28;;;8.83;54.80
55068;BME280;40965;52.368;9.712;2024-03-08T07:33:12;101287.53;;;9.18;52.50
55068;BME280;40965;52.368;9.712;2024-03-08T07:35:42;101289.91;;;8.87;53.84
55068;BME280;40965;52.368;9.712;2024-03-08T07:38:10;101285.13;;;9.52;52.31
55068;BME280;40965;52.368;9.712;2024-03-08T07:40:41;101275.38;;;9.26;52.21
55068;BME280;40965;52.368;9.712;2024-03-08T07:43:14;101275.25;;;9.05;51.13
55068;BME280;40965;52.368;9.712;2024-03-08T07:45:42;101272.41;;;8.77;51.54
55068;BME280;40965;52.368;9.712;2024-03-08T07:48:08;101267.78;;;9.70;50.83
55068;BME280;40965;52.368;9.712;2024-03-08T07:50:37;101273.00;;;9.68;49.81
55068;BME280;40965;52.368;9.712;2024-03-08T07:53:07;101265.19;;;9.73;50.85
55068;BME280;40965;52.368;9.712;2024-03-08T07:55:34;101259.25;;;10.23;49.92
55068;BME280;40965;52.368;9.712;2024-03-08T07:58:04;101254.78;;;9.84;50.10
55068;BME280;40965;52.368;9.712;2024-03-08T08:00:31;101258.69;;;9.04;50.41
55068;BME280;40965;52.368;9.712;2024-03-08T08:02:59;101249.03;;;8.94;51.31
55068;BME280;40965;52.368;9.712;2024-03-08T08:05:26;101242.09;;;7.32;54.49
55068;BME280;40965;52.368;9.712;2024-03-08T08:07:58;101257.16;;;4.77;61.53
55068;BME280;40965;52.368;9.712;2024-03-08T08:10:28;101248.50;;;4.10;65.71
55068;BME280;40965;52.368;9.712;2024-03-08T08:12:55;101253.22;;;3.62;68.31
55068;BME280;40965;52.368;9.712;2024-03-08T08:15:26;101254.84;;;3.59;69.50
55068;BME280;40965;52.368;9.712;2024-03-08T08:17:55;101251.47;;;3.33;71.46
55068;BME280;40965;52.368;9.712;2024-03-08T08:20:22;101247.41;;;3.12;73.64
55068;BME280;40965;52.368;9.712;2024-03-08T08:22:51;101257.84;;;3.15;73.92
55068;BME280;40965;52.368;9.712;2024-03-08T08:25:20;101247.75;;;3.24;73.88
55068;BME280;40965;52.368;9.712;2024-03-08T08:27:54;101250.34;;;3.24;74.28
55068;BME280;40965;52.368;9.712;2024-03-08T08:30:23;101251.78;;;3.14;75.08
55068;BME280;40965;52.368;9.712;2024-03-08T08:32:49;101247.72;;;3.23;74.58
55068;BME280;40965;52.368;9.712;2024-03-08T08:35:16;101246.19;;;3.29;74.51
55068;BME280;40965;52.368;9.712;2024-03-08T08:37:46;101243.22;;;3.16;75.24
55068;BME280;40965;52.368;9.712;2024-03-08T08:40:21;101241.84;;;3.28;75.48
55068;BME280;40965;52.368;9.712;2024-03-08T08:42:53;101240.09;;;3.56;74.32
55068;BME280;40965;52.368;9.712;2024-03-08T08:45:22;101231.91;;;3.73;73.29
55068;BME280;40965;52.368;9.712;2024-03-08T08:47:50;101231.53;;;3.89;72.68
55068;BME280;40965;52.368;9.712;2024-03-08T08:50:18;101235.44;;;3.75;72.60
55068;BME280;40965;52.368;9.712;2024-03-08T08:52:49;101228.06;;;3.89;72.46
55068;BME280;40965;52.368;9.712;2024-03-08T08:55:18;101229.72;;;3.87;72.02
55068;BME280;40965;52.368;9.712;2024-03-08T08:57:46;101224.00;;;3.98;71.80
55068;BME280;40965;52.368;9.712;2024-03-08T09:00:21;101228.84;;;4.18;71.10
55068;BME280;40965;52.368;9.712;2024-03-08T09:02:52;101229.31;;;4.37;70.46
55068;BME280;40965;52.368;9.712;2024-03-08T09:05:23;101215.91;;;4.20;70.25
55068;BME280;40965;52.368;9.712;2024-03-08T09:07:52;101214.28;;;4.23;70.65
55068;BME280;40965;52.368;9.712;2024-03-08T09:10:23;101215.81;;;4.15;70.59
55068;BME280;40965;52.368;9.712;2024-03-08T09:12:59;101212.94;;;4.38;69.98
55068;BME280;40965;52.368;9.712;2024-03-08T09:15:30;101214.75;;;4.42;70.24
55068;BME280;40965;52.368;9.712;2024-03-08T09:18:00;101204.66;;;4.18;70.53
55068;BME280;40965;52.368;9.712;2024-03-08T09:20:40;101213.06;;;4.42;70.23
55068;BME280;40965;52.368;9.712;2024-03-08T09:23:19;101209.91;;;4.54;69.08
55068;BME280;40965;52.368;9.712;2024-03-08T09:26:04;101210.81;;;4.56;68.92
55068;BME280;40965;52.368;9.712;2024-03-08T09:28:38;101206.31;;;4.49;69.43
55068;BME280;40965;52.368;9.712;2024-03-08T09:31:14;101195.94;;;4.49;69.32
55068;BME280;40965;52.368;9.712;2024-03-08T09:33:57;101194.22;;;4.50;68.62
55068;BME280;40965;52.368;9.712;2024-03-08T09:36:24;101190.00;;;4.55;69.37
55068;BME280;40965;52.368;9.712;2024-03-08T09:38:55;101193.69;;;4.63;69.22
55068;BME280;40965;52.368;9.712;2024-03-08T09:41:25;101179.94;;;4.67;68.59
55068;BME280;40965;52.368;9.712;2024-03-08T09:44:01;101173.38;;;4.82;68.88
55068;BME280;40965;52.368;9.712;2024-03-08T09:46:29;101176.53;;;5.06;67.59
55068;BME280;40965;52.368;9.712;2024-03-08T09:48:57;101163.88;;;5.22;66.75
55068;BME280;40965;52.368;9.712;2024-03-08T09:51:30;101164.34;;;5.04;65.99
55068;BME280;40965;52.368;9.712;2024-03-08T09:54:03;101164.91;;;5.30;66.43
55068;BME280;40965;52.368;9.712;2024-03-08T09:56:35;101154.63;;;5.35;65.87
55068;BME280;40965;52.368;9.712;2024-03-08T09:59:15;101140.72;;;5.33;65.29
55068;BME280;40965;52.368;9.712;2024-03-08T10:02:14;101144.56;;;5.50;65.41
55068;BME280;40965;52.368;9.712;2024-03-08T10:04:48;101134.50;;;6.16;64.34
55068;BME280;40965;52.368;9.712;2024-03-08T10:07:23;101139.00;;;8.40;58.27
55068;BME280;40965;52.368;9.712;2024-03-08T10:09:52;101120.44;;;9.46;54.86
55068;BME280;40965;52.368;9.712;2024-03-08T10:12:21;101110.88;;;11.01;52.04
55068;BME280;40965;52.368;9.712;2024-03-08T10:15:09;101105.38;;;11.57;49.45
55068;BME280;40965;52.368;9.712;2024-03-08T10:18:01;101104.84;;;10.74;48.98
55068;BME280;40965;52.368;9.712;2024-03-08T10:20:36;101093.56;;;10.38;48.24
55068;BME280;40965;52.368;9.712;2024-03-08T10:23:06;101098.78;;;10.52;47.90
55068;BME280;40965;52.368;9.712;2024-03-08T10:25:35;101093.41;;;11.02;48.02
55068;BME280;40965;52.368;9.712;2024-03-08T10:28:06;101087.00;;;11.60;46.51
55068;BME280;40965;52.368;9.712;2024-03-08T10:30:36;101080.94;;;11.52;46.07
55068;BME280;40965;52.368;9.712;2024-03-08T10:33:05;101087.06;;;11.51;46.68
55068;BME280;40965;52.368;9.712;2024-03-08T10:35:35;101073.69;;;11.91;46.30
55068;BME280;40965;52.368;9.712;2024-03-08T10:38:23;101088.66;;;11.77;45.68
55068;BME280;40965;52.368;9.712;2024-03-08T10:41:22;101080.53;;;12.12;45.24
55068;BME280;40965;52.368;9.712;2024-03-08T10:50:22;101088.50;;;12.00;44.83
55068;BME280;40965;52.368;9.712;2024-03-08T10:53:20;101077.84;;;10.23;48.29
55068;BME280;40965;52.368;9.712;2024-03-08T10:56:20;101067.34;;;10.24;49.04
55068;BME280;40965;52.368;9.712;2024-03-08T10:59:01;101072.59;;;10.32;48.39
55068;BME280;40965;52.368;9.712;2024-03-08T11:01:43;101074.34;;;10.10;48.46
55068;BME280;40965;52.368;9.712;2024-03-08T11:04:11;101064.69;;;10.79;48.60
55068;BME280;40965;52.368;9.712;2024-03-08T11:09:26;101058.03;;;11.75;45.05
55068;BME280;40965;52.368;9.712;2024-03-08T11:12:21;101051.88;;;11.84;44.93
55068;BME280;40965;52.368;9.712;2024-03-08T11:14:59;101056.59;;;12.45;45.14
55068;BME280;40965;52.368;9.712;2024-03-08T11:17:48;101043.41;;;12.51;44.29
55068;BME280;40965;52.368;9.712;2024-03-08T11:20:29;101029.69;;;13.64;42.37
55068;BME280;40965;52.368;9.712;2024-03-08T11:33:56;100992.13;;;14.07;41.89
55068;BME280;40965;52.368;9.712;2024-03-08T11:36:25;101001.84;;;14.05;40.85
55068;BME280;40965;52.368;9.712;2024-03-08T11:39:04;101000.94;;;13.53;42.38
55068;BME280;40965;52.368;9.712;2024-03-08T11:41:40;100989.50;;;13.54;42.04
55068;BME280;40965;52.368;9.712;2024-03-08T11:44:11;100996.25;;;13.72;41.72
55068;BME280;40965;52.368;9.712;2024-03-08T11:46:41;100992.06;;;12.97;41.48
55068;BME280;40965;52.368;9.712;2024-03-08T11:49:14;100968.34;;;14.14;40.70
55068;BME280;40965;52.368;9.712;2024-03-08T11:51:59;100978.19;;;13.51;41.31
55068;BME280;40965;52.368;9.712;2024-03-08T11:54:32;100959.31;;;13.79;40.97
55068;BME280;40965;52.368;9.712;2024-03-08T11:57:03;100970.13;;;14.12;39.80
55068;BME280;40965;52.368;9.712;2024-03-08T12:02:47;100960.09;;;14.76;39.40
55068;BME280;40965;52.368;9.712;2024-03-08T12:05:41;100956.97;;;14.55;40.52
55068;BME280;40965;52.368;9.712;2024-03-08T12:08:42;100941.09;;;14.60;40.14
55068;BME280;40965;52.368;9.712;2024-03-08T12:11:24;100941.91;;;14.65;39.77
55068;BME280;40965;52.368;9.712;2024-03-08T12:13:52;100928.16;;;14.92;39.25
55068;BME280;40965;52.368;9.712;2024-03-08T12:16:32;100944.84;;;14.91;39.13
55068;BME280;40965;52.368;9.712;2024-03-08T12:19:16;100936.84;;;14.53;39.21
55068;BME280;40965;52.368;9.712;2024-03-08T12:21:51;100933.53;;;13.98;39.45
55068;BME280;40965;52.368;9.712;2024-03-08T12:24:18;100925.50;;;12.98;41.38
55068;BME280;40965;52.368;9.712;2024-03-08T12:29:38;100908.06;;;13.50;40.33
55068;BME280;40965;52.368;9.712;2024-03-08T12:32:09;100913.78;;;14.20;39.45
55068;BME280;40965;52.368;9.712;2024-03-08T12:34:52;100902.78;;;14.44;38.76
55068;BME280;40965;52.368;9.712;2024-03-08T12:37:26;100889.91;;;14.30;38.92
55068;BME280;40965;52.368;9.712;2024-03-08T12:40:15;100886.81;;;14.51;39.51
55068;BME280;40965;52.368;9.712;2024-03-08T12:42:48;100888.81;;;15.54;37.98
55068;BME280;40965;52.368;9.712;2024-03-08T12:45:27;100889.22;;;14.64;38.05
55068;BME280;40965;52.368;9.712;2024-03-08T12:48:01;100871.19;;;14.00;39.41
55068;BME280;40965;52.368;9.712;2024-03-08T12:50:38;100874.28;;;13.23;40.31
55068;BME280;40965;52.368;9.712;2024-03-08T12:53:12;100864.75;;;13.16;40.99
55068;BME280;40965;52.368;9.712;2024-03-08T12:55:54;100870.88;;;13.70;40.02
55068;BME280;40965;52.368;9.712;2024-03-08T12:58:22;100868.28;;;14.56;39.60
55068;BME280;40965;52.368;9.712;2024-03-08T13:00:49;100850.75;;;14.53;39.19
55068;BME280;40965;52.368;9.712;2024-03-08T13:03:17;100856.16;;;13.60;40.06
55068;BME280;40965;52.368;9.712;2024-03-08T13:05:48;100855.47;;;14.39;39.95
55068;BME280;40965;52.368;9.712;2024-03-08T13:08:15;100848.66;;;15.43;38.21
55068;BME280;40965;52.368;9.712;2024-03-08T13:10:45;100842.41;;;15.13;38.69
55068;BME280;40965;52.368;9.712;2024-03-08T13:13:19;100838.69;;;15.21;39.02
55068;BME280;40965;52.368;9.712;2024-03-08T13:15:54;100831.72;;;16.75;38.13
55068;BME280;40965;52.368;9.712;2024-03-08T13:18:26;100832.44;;;16.21;37.93
55068;BME280;40965;52.368;9.712;2024-03-08T13:21:00;100833.03;;;16.61;37.79
55068;BME280;40965;52.368;9.712;2024-03-08T13:23:31;100825.81;;;15.42;38.57
55068;BME280;40965;52.368;9.712;2024-03-08T13:26:09;100820.97;;;15.60;38.66
55068;BME280;40965;52.368;9.712;2024-03-08T13:28:45;100826.88;;;14.64;39.63
55068;BME280;40965;52.368;9.712;2024-03-08T13:31:32;100829.31;;;14.72;39.90
55068;BME280;40965;52.368;9.712;2024-03-08T13:34:01;100815.00;;;15.86;38.62
55068;BME280;40965;52.368;9.712;2024-03-08T13:36:30;100812.31;;;16.76;36.97
55068;BME280;40965;52.368;9.712;2024-03-08T13:39:07;100817.88;;;16.38;37.21
55068;BME280;40965;52.368;9.712;2024-03-08T13:41:41;100812.84;;;15.67;38.45